KLVM/LVM METAR and TAF weather

Enter ICAO airport designator
Station Type Date Time Source
KLVM METAR 2019/04/18 09:53 UTC NOAA

KLVM 180953Z AUTO 24015G23KT 10SM FEW065 FEW080 05/M04 A3022 RMK AO2 SLP232 T00501044


Station Type Date Time Source
KLVM Decoded METAR 2019/04/18 09:53 UTC NOAA

LIVINGSTON MISSION FIELD, MT, United States (KLVM) 45-42N 110-26W 1418M
Apr 18, 2019 - 05:53 AM EDT / 2019.04.18 0953 UTC
Wind: from the WSW (240 degrees) at 17 MPH (15 KT) gusting to 26 MPH (23 KT):0
Visibility: 10 mile(s):0
Sky conditions: mostly clear
Temperature: 41.0 F (5.0 C)
Dew Point: 24.1 F (-4.4 C)
Relative Humidity: 50%
Pressure (altimeter): 30.22 in. Hg (1023 hPa)
ob: KLVM 180953Z AUTO 24015G23KT 10SM FEW065 FEW080 05/M04 A3022 RMK AO2 SLP232 T00501044
cycle: 10

Station Type Date Time Source
KLVM TAF 2019/04/18 06:39 UTC NOAA

TAF KLVM 180537Z 1806/1906 27015KT P6SM SCT060
FM181600 25020G30KT P6SM SCT050 BKN080

Example: see airport list